createdAt,value
2023-05-07T00:00:48.607Z,15.28
2023-05-07T00:01:48.635Z,15.30
2023-05-07T00:02:48.716Z,15.28
2023-05-07T00:03:48.821Z,15.28
2023-05-07T00:04:48.631Z,15.28
2023-05-07T00:05:48.554Z,15.30
2023-05-07T00:06:48.556Z,15.28
2023-05-07T00:07:48.562Z,15.30
2023-05-07T00:08:48.528Z,15.30
2023-05-07T00:09:48.543Z,15.30
2023-05-07T00:10:48.469Z,15.30
2023-05-07T00:11:48.478Z,15.30
2023-05-07T00:12:48.568Z,15.31
2023-05-07T00:13:48.447Z,15.30
2023-05-07T00:14:48.464Z,15.28
2023-05-07T00:15:48.450Z,15.27
2023-05-07T00:16:48.445Z,15.28
2023-05-07T00:17:48.426Z,15.31
2023-05-07T00:18:48.401Z,15.28
2023-05-07T00:19:48.417Z,15.27
2023-05-07T00:20:49.356Z,15.27
2023-05-07T00:21:48.359Z,15.28
2023-05-07T00:22:48.367Z,15.27
2023-05-07T00:23:48.335Z,15.27
2023-05-07T00:24:48.361Z,15.27
2023-05-07T00:25:48.537Z,15.27
2023-05-07T00:26:48.287Z,15.23
2023-05-07T00:27:48.290Z,15.25
2023-05-07T00:28:48.239Z,15.23
2023-05-07T00:29:48.284Z,15.23
2023-05-07T00:30:48.214Z,15.23
2023-05-07T00:31:48.283Z,15.22
2023-05-07T00:32:48.236Z,15.20
2023-05-07T00:33:48.231Z,15.22
2023-05-07T00:34:48.183Z,15.20
2023-05-07T00:35:48.160Z,15.20
2023-05-07T00:36:48.181Z,15.20
2023-05-07T00:37:48.196Z,15.19
2023-05-07T00:38:48.145Z,15.19
2023-05-07T00:39:48.210Z,15.18
2023-05-07T00:40:48.101Z,15.18
2023-05-07T00:41:48.081Z,15.16
2023-05-07T00:42:48.286Z,15.15
2023-05-07T00:43:48.049Z,15.15
2023-05-07T00:44:48.057Z,15.15
2023-05-07T00:45:48.134Z,15.13
2023-05-07T00:46:48.164Z,15.12
2023-05-07T00:47:48.046Z,15.11
2023-05-07T00:48:48.047Z,15.09
2023-05-07T00:49:48.008Z,15.09
2023-05-07T00:50:47.995Z,15.09
2023-05-07T00:51:48.002Z,15.07
2023-05-07T00:52:47.951Z,15.09
2023-05-07T00:53:47.981Z,15.07
2023-05-07T00:54:48.031Z,15.07
2023-05-07T00:55:47.890Z,15.04
2023-05-07T00:56:47.891Z,15.04
2023-05-07T00:57:47.901Z,15.04
2023-05-07T00:58:47.900Z,15.04
2023-05-07T00:59:47.936Z,15.03
2023-05-07T01:00:47.887Z,15.03
2023-05-07T01:01:47.926Z,15.03
2023-05-07T01:02:48.044Z,15.01
2023-05-07T01:03:47.828Z,15.01
2023-05-07T01:04:47.804Z,15.00
2023-05-07T01:05:47.805Z,15.03
2023-05-07T01:06:47.737Z,15.03
2023-05-07T01:07:47.766Z,15.03
2023-05-07T01:08:47.722Z,15.01
2023-05-07T01:09:47.818Z,15.01
2023-05-07T01:10:47.732Z,15.01
2023-05-07T01:11:47.724Z,15.01
2023-05-07T01:12:47.747Z,15.01
2023-05-07T01:13:47.667Z,15.01
2023-05-07T01:14:47.688Z,15.03
2023-05-07T01:15:47.664Z,15.03
2023-05-07T01:16:47.657Z,15.01
2023-05-07T01:17:47.711Z,15.01
2023-05-07T01:18:47.607Z,15.01
2023-05-07T01:19:47.655Z,15.00
2023-05-07T01:20:47.574Z,15.00
2023-05-07T01:21:47.558Z,14.98
2023-05-07T01:22:47.543Z,15.00
2023-05-07T01:23:47.562Z,15.01
2023-05-07T01:24:47.513Z,15.03
2023-05-07T01:25:47.511Z,15.04
2023-05-07T01:26:47.494Z,15.03
2023-05-07T01:27:47.488Z,15.04
2023-05-07T01:28:47.470Z,15.05
2023-05-07T01:29:47.526Z,15.05
2023-05-07T01:30:47.459Z,15.04
2023-05-07T01:31:47.496Z,15.05
2023-05-07T01:32:47.513Z,15.05
2023-05-07T01:33:47.400Z,15.07
2023-05-07T01:34:47.426Z,15.04
2023-05-07T01:35:47.412Z,15.05
2023-05-07T01:36:47.361Z,15.05
2023-05-07T01:37:47.382Z,15.07
2023-05-07T01:38:47.356Z,15.05
2023-05-07T01:39:47.347Z,15.07
2023-05-07T01:40:47.314Z,15.05
2023-05-07T01:41:47.333Z,15.04
2023-05-07T01:42:47.352Z,15.04
2023-05-07T01:43:47.276Z,15.03
2023-05-07T01:44:47.300Z,15.03
2023-05-07T01:45:47.270Z,15.01
2023-05-07T01:46:47.365Z,15.00
2023-05-07T01:47:47.309Z,15.01
2023-05-07T01:48:47.201Z,15.01
2023-05-07T01:49:47.298Z,15.00
2023-05-07T01:50:47.170Z,15.00
2023-05-07T01:51:47.199Z,15.00
2023-05-07T01:52:47.138Z,14.98
2023-05-07T01:53:47.139Z,14.98
2023-05-07T01:54:47.177Z,14.97
2023-05-07T01:55:47.127Z,14.95
2023-05-07T01:56:47.080Z,14.94
2023-05-07T01:57:47.125Z,14.93
2023-05-07T01:58:47.067Z,14.91
2023-05-07T01:59:47.106Z,14.91
2023-05-07T02:00:47.063Z,14.91
2023-05-07T02:01:47.114Z,14.90
2023-05-07T02:02:47.162Z,14.90
2023-05-07T02:03:47.139Z,14.90
2023-05-07T02:04:46.995Z,14.90
2023-05-07T02:05:46.994Z,14.90
2023-05-07T02:06:46.965Z,14.86
2023-05-07T02:07:47.007Z,14.85
2023-05-07T02:08:46.930Z,14.83
2023-05-07T02:09:46.968Z,14.83
2023-05-07T02:10:46.908Z,14.82
2023-05-07T02:11:46.908Z,14.82
2023-05-07T02:12:46.908Z,14.82
2023-05-07T02:13:46.908Z,14.80
2023-05-07T02:14:46.865Z,14.82
2023-05-07T02:15:46.857Z,14.80
2023-05-07T02:16:46.949Z,14.80
2023-05-07T02:17:46.867Z,14.80
2023-05-07T02:18:46.835Z,14.80
2023-05-07T02:19:46.805Z,14.82
2023-05-07T02:20:46.817Z,14.82
2023-05-07T02:21:46.795Z,14.83
2023-05-07T02:22:46.782Z,14.80
2023-05-07T02:23:46.812Z,14.82
2023-05-07T02:24:46.735Z,14.78
2023-05-07T02:25:46.736Z,14.79
2023-05-07T02:26:46.710Z,14.79
2023-05-07T02:27:46.729Z,14.79
2023-05-07T02:28:46.697Z,14.79
2023-05-07T02:29:46.708Z,14.74
2023-05-07T02:30:46.676Z,14.72
2023-05-07T02:31:46.707Z,14.71
2023-05-07T02:32:46.695Z,14.67
2023-05-07T02:33:46.645Z,14.67
2023-05-07T02:34:46.603Z,14.66
2023-05-07T02:35:46.626Z,14.63
2023-05-07T02:36:46.583Z,14.60
2023-05-07T02:37:46.576Z,14.57
2023-05-07T02:38:46.544Z,14.57
2023-05-07T02:39:46.536Z,14.56
2023-05-07T02:40:46.550Z,14.49
2023-05-07T02:41:46.576Z,14.46
2023-05-07T02:42:46.499Z,14.44
2023-05-07T02:43:46.503Z,14.42
2023-05-07T02:44:46.484Z,14.39
2023-05-07T02:45:46.507Z,14.35
2023-05-07T02:46:46.483Z,14.31
2023-05-07T02:47:46.488Z,14.30
2023-05-07T02:48:46.436Z,14.30
2023-05-07T02:49:46.456Z,14.30
2023-05-07T02:50:46.414Z,14.29
2023-05-07T02:51:46.434Z,14.27
2023-05-07T02:52:46.383Z,14.26
2023-05-07T02:53:46.409Z,14.24
2023-05-07T02:54:46.360Z,14.24
2023-05-07T02:55:46.333Z,14.23
2023-05-07T02:56:46.378Z,14.23
2023-05-07T02:57:46.315Z,14.19
2023-05-07T02:58:46.307Z,14.20
2023-05-07T02:59:46.314Z,14.19
2023-05-07T03:00:46.266Z,14.16
2023-05-07T03:01:46.308Z,14.16
2023-05-07T03:02:46.302Z,14.12
2023-05-07T03:03:46.235Z,14.12
2023-05-07T03:04:46.250Z,14.11
2023-05-07T03:05:46.224Z,14.09
2023-05-07T03:06:46.172Z,14.08
2023-05-07T03:07:46.228Z,14.06
2023-05-07T03:08:46.187Z,14.05
2023-05-07T03:09:46.205Z,14.04
2023-05-07T03:10:46.118Z,14.04
2023-05-07T03:11:46.164Z,14.04
2023-05-07T03:12:46.149Z,14.02
2023-05-07T03:13:46.072Z,14.05
2023-05-07T03:14:46.198Z,14.05
2023-05-07T03:15:46.061Z,14.04
2023-05-07T03:16:46.084Z,14.05
2023-05-07T03:17:46.106Z,14.06
2023-05-07T03:18:46.074Z,14.04
2023-05-07T03:19:46.051Z,14.05
2023-05-07T03:20:46.115Z,14.05
2023-05-07T03:21:45.976Z,14.05
2023-05-07T03:22:46.022Z,14.05
2023-05-07T03:23:45.987Z,14.05
2023-05-07T03:24:45.938Z,14.04
2023-05-07T03:25:45.945Z,14.04
2023-05-07T03:26:45.956Z,14.02
2023-05-07T03:27:45.914Z,14.04
2023-05-07T03:28:45.920Z,14.04
2023-05-07T03:29:45.890Z,14.02
2023-05-07T03:30:45.912Z,14.01
2023-05-07T03:31:45.905Z,14.01
2023-05-07T03:32:45.889Z,13.99
2023-05-07T03:33:45.842Z,13.99
2023-05-07T03:34:45.857Z,13.99
2023-05-07T03:35:46.769Z,13.96
2023-05-07T03:36:45.811Z,13.96
2023-05-07T03:37:45.772Z,13.98
2023-05-07T03:38:45.791Z,13.96
2023-05-07T03:39:45.783Z,13.96
2023-05-07T03:40:45.725Z,13.94
2023-05-07T03:41:45.778Z,13.94
2023-05-07T03:42:45.801Z,13.93
2023-05-07T03:43:45.668Z,13.94
2023-05-07T03:44:45.685Z,13.94
2023-05-07T03:45:45.684Z,13.93
2023-05-07T03:46:45.800Z,13.93
2023-05-07T03:47:45.661Z,13.93
2023-05-07T03:48:45.634Z,13.93
2023-05-07T03:49:45.623Z,13.91
2023-05-07T03:50:45.619Z,13.91
2023-05-07T03:51:45.609Z,13.90
2023-05-07T03:52:45.627Z,13.90
2023-05-07T03:53:45.568Z,13.88
2023-05-07T03:54:45.583Z,13.91
2023-05-07T03:55:45.538Z,13.91
2023-05-07T03:56:45.573Z,13.90
2023-05-07T03:57:45.534Z,13.88
2023-05-07T03:58:45.508Z,13.91
2023-05-07T03:59:45.454Z,13.91
2023-05-07T04:00:45.464Z,13.91
2023-05-07T04:01:45.507Z,13.91
2023-05-07T04:02:45.588Z,13.88
2023-05-07T04:03:45.524Z,13.90
2023-05-07T04:04:45.439Z,13.90
2023-05-07T04:05:45.405Z,13.88
2023-05-07T04:06:45.418Z,13.88
2023-05-07T04:07:45.378Z,13.88
2023-05-07T04:08:45.407Z,13.90
2023-05-07T04:09:45.436Z,13.90
2023-05-07T04:10:45.371Z,13.91
2023-05-07T04:11:45.349Z,13.91
2023-05-07T04:12:45.425Z,13.93
2023-05-07T04:13:45.326Z,13.91
2023-05-07T04:14:45.339Z,13.94
2023-05-07T04:15:45.350Z,13.93
2023-05-07T04:16:45.301Z,13.96
2023-05-07T04:17:45.410Z,13.94
2023-05-07T04:18:45.274Z,13.96
2023-05-07T04:19:45.210Z,13.96
2023-05-07T04:20:45.234Z,13.98
2023-05-07T04:21:45.300Z,14.01
2023-05-07T04:22:45.263Z,14.02
2023-05-07T04:23:45.172Z,14.04
2023-05-07T04:24:45.160Z,14.04
2023-05-07T04:25:45.115Z,14.06
2023-05-07T04:26:45.180Z,14.08
2023-05-07T04:27:45.130Z,14.09
2023-05-07T04:28:45.124Z,14.11
2023-05-07T04:29:45.105Z,14.12
2023-05-07T04:30:45.080Z,14.13
2023-05-07T04:31:45.117Z,14.13
2023-05-07T04:32:45.123Z,14.17
2023-05-07T04:33:45.020Z,14.16
2023-05-07T04:34:45.021Z,14.17
2023-05-07T04:35:44.983Z,14.17
2023-05-07T04:36:44.995Z,14.17
2023-05-07T04:37:44.997Z,14.19
2023-05-07T04:38:52.640Z,14.17
2023-05-07T04:39:44.975Z,14.20
2023-05-07T04:40:44.967Z,14.21
2023-05-07T04:41:44.938Z,14.23
2023-05-07T04:42:44.929Z,14.24
2023-05-07T04:43:44.944Z,14.26
2023-05-07T04:44:44.890Z,14.30
2023-05-07T04:45:44.933Z,14.30
2023-05-07T04:46:44.856Z,14.31
2023-05-07T04:47:44.969Z,14.34
2023-05-07T04:48:44.893Z,14.35
2023-05-07T04:49:44.832Z,14.36
2023-05-07T04:50:44.815Z,14.36
2023-05-07T04:51:45.170Z,14.36
2023-05-07T04:52:44.804Z,14.38
2023-05-07T04:53:44.808Z,14.39
2023-05-07T04:54:44.777Z,14.41
2023-05-07T04:55:44.812Z,14.44
2023-05-07T04:56:44.734Z,14.46
2023-05-07T04:57:44.781Z,14.48
2023-05-07T04:58:44.725Z,14.49
2023-05-07T04:59:44.724Z,14.53
2023-05-07T05:00:44.667Z,14.54
2023-05-07T05:01:44.697Z,14.56
2023-05-07T05:02:44.771Z,14.59
2023-05-07T05:03:44.653Z,14.59
2023-05-07T05:04:44.667Z,14.63
2023-05-07T05:05:44.620Z,14.64
2023-05-07T05:06:44.652Z,14.67
2023-05-07T05:07:44.562Z,14.67
2023-05-07T05:08:44.597Z,14.69
2023-05-07T05:09:44.587Z,14.71
2023-05-07T05:10:44.584Z,14.74
2023-05-07T05:11:44.573Z,14.74
2023-05-07T05:12:44.578Z,14.78
2023-05-07T05:13:44.506Z,14.78
2023-05-07T05:14:44.510Z,14.75
2023-05-07T05:15:44.494Z,14.75
2023-05-07T05:16:44.465Z,14.79
2023-05-07T05:17:44.508Z,14.79
2023-05-07T05:18:44.467Z,14.82
2023-05-07T05:19:44.440Z,14.83
2023-05-07T05:20:44.447Z,14.85
2023-05-07T05:21:44.430Z,14.87
2023-05-07T05:22:44.396Z,14.90
2023-05-07T05:23:44.369Z,14.91
2023-05-07T05:24:44.409Z,14.93
2023-05-07T05:25:44.361Z,14.97
2023-05-07T05:26:44.337Z,14.97
2023-05-07T05:27:44.321Z,15.00
2023-05-07T05:28:44.336Z,15.00
2023-05-07T05:29:44.279Z,15.00
2023-05-07T05:30:44.316Z,15.01
2023-05-07T05:31:44.330Z,15.03
2023-05-07T05:32:44.311Z,15.05
2023-05-07T05:33:44.313Z,15.07
2023-05-07T05:34:44.226Z,15.07
2023-05-07T05:35:44.251Z,15.09
2023-05-07T05:36:44.200Z,15.11
2023-05-07T05:37:44.219Z,15.12
2023-05-07T05:38:44.226Z,15.13
2023-05-07T05:39:44.160Z,15.13
2023-05-07T05:40:44.160Z,15.13
2023-05-07T05:41:44.136Z,15.15
2023-05-07T05:42:44.135Z,15.16
2023-05-07T05:43:44.116Z,15.18
2023-05-07T05:44:44.091Z,15.18
2023-05-07T05:45:44.093Z,15.18
2023-05-07T05:46:44.118Z,15.19
2023-05-07T05:47:44.101Z,15.20
2023-05-07T05:48:44.042Z,15.22
2023-05-07T05:49:44.051Z,15.18
2023-05-07T05:50:44.019Z,15.19
2023-05-07T05:51:44.015Z,15.20
2023-05-07T05:52:44.002Z,15.20
2023-05-07T05:53:43.984Z,15.19
2023-05-07T05:54:43.998Z,15.20
2023-05-07T05:55:43.972Z,15.19
2023-05-07T05:56:43.942Z,15.19
2023-05-07T05:57:43.942Z,15.20
2023-05-07T05:58:43.965Z,15.23
2023-05-07T05:59:43.899Z,15.23
2023-05-07T06:00:43.890Z,15.25
2023-05-07T06:01:43.914Z,15.28
2023-05-07T06:02:44.113Z,15.31
2023-05-07T06:03:43.858Z,15.34
2023-05-07T06:04:44.089Z,15.35
2023-05-07T06:05:43.806Z,15.38
2023-05-07T06:06:43.809Z,15.41
2023-05-07T06:07:43.815Z,15.46
2023-05-07T06:08:43.818Z,15.48
2023-05-07T06:09:43.742Z,15.51
2023-05-07T06:10:43.746Z,15.53
2023-05-07T06:11:43.774Z,15.55
2023-05-07T06:12:43.813Z,15.56
2023-05-07T06:13:43.738Z,15.56
2023-05-07T06:14:43.686Z,15.60
2023-05-07T06:15:43.670Z,15.58
2023-05-07T06:16:43.749Z,15.60
2023-05-07T06:17:43.752Z,15.62
2023-05-07T06:18:43.654Z,15.66
2023-05-07T06:19:43.641Z,15.64
2023-05-07T06:20:43.645Z,15.67
2023-05-07T06:21:43.620Z,15.70
2023-05-07T06:22:43.690Z,15.71
2023-05-07T06:23:43.580Z,15.74
2023-05-07T06:24:43.616Z,15.77
2023-05-07T06:25:43.583Z,15.78
2023-05-07T06:26:43.581Z,15.84
2023-05-07T06:27:43.557Z,15.85
2023-05-07T06:28:43.554Z,15.86
2023-05-07T06:29:43.498Z,15.89
2023-05-07T06:30:43.538Z,15.91
2023-05-07T06:31:43.576Z,15.93
2023-05-07T06:32:43.500Z,15.96
2023-05-07T06:33:43.440Z,16.03
2023-05-07T06:34:43.484Z,16.07
2023-05-07T06:35:43.441Z,16.13
2023-05-07T06:36:43.425Z,16.17
2023-05-07T06:37:43.404Z,16.22
2023-05-07T06:38:43.412Z,16.26
2023-05-07T06:39:43.352Z,16.30
2023-05-07T06:40:43.351Z,16.36
2023-05-07T06:41:43.355Z,16.37
2023-05-07T06:42:43.351Z,16.41
2023-05-07T06:43:43.319Z,16.45
2023-05-07T06:44:43.290Z,16.50
2023-05-07T06:45:43.315Z,16.52
2023-05-07T06:46:43.404Z,16.57
2023-05-07T06:47:43.339Z,16.60
2023-05-07T06:48:43.241Z,16.65
2023-05-07T06:49:43.233Z,16.66
2023-05-07T06:50:43.240Z,16.69
2023-05-07T06:51:43.201Z,16.70
2023-05-07T06:52:43.232Z,16.70
2023-05-07T06:53:43.170Z,16.73
2023-05-07T06:54:43.192Z,16.73
2023-05-07T06:55:43.144Z,16.73
2023-05-07T06:56:43.156Z,16.75
2023-05-07T06:57:43.160Z,16.73
2023-05-07T06:58:43.148Z,16.72
2023-05-07T06:59:43.139Z,16.75
2023-05-07T07:00:43.127Z,16.78
2023-05-07T07:01:43.131Z,16.84
2023-05-07T07:02:43.150Z,16.87
2023-05-07T07:03:43.051Z,16.85
2023-05-07T07:04:43.145Z,16.90
2023-05-07T07:05:43.042Z,16.91
2023-05-07T07:06:43.073Z,16.95
2023-05-07T07:07:43.028Z,16.96
2023-05-07T07:08:43.002Z,17.02
2023-05-07T07:09:43.026Z,17.03
2023-05-07T07:10:42.994Z,17.03
2023-05-07T07:11:42.965Z,17.05
2023-05-07T07:12:42.991Z,17.06
2023-05-07T07:13:42.954Z,17.07
2023-05-07T07:14:42.925Z,17.10
2023-05-07T07:15:42.943Z,17.14
2023-05-07T07:16:42.888Z,17.15
2023-05-07T07:17:42.931Z,17.18
2023-05-07T07:18:42.892Z,17.21
2023-05-07T07:19:42.840Z,17.27
2023-05-07T07:20:42.863Z,17.32
2023-05-07T07:21:42.852Z,17.35
2023-05-07T07:22:42.807Z,17.39
2023-05-07T07:23:42.828Z,17.42
2023-05-07T07:24:42.807Z,17.47
2023-05-07T07:25:42.768Z,17.53
2023-05-07T07:26:42.758Z,17.57
2023-05-07T07:27:42.727Z,17.63
2023-05-07T07:28:45.053Z,17.66
2023-05-07T07:29:42.771Z,17.71
2023-05-07T07:30:42.701Z,17.73
2023-05-07T07:31:42.697Z,17.76
2023-05-07T07:32:42.679Z,17.81
2023-05-07T07:33:42.733Z,17.83
2023-05-07T07:34:42.651Z,17.89
2023-05-07T07:35:42.655Z,17.91
2023-05-07T07:36:46.569Z,17.89
2023-05-07T07:37:42.600Z,17.94
2023-05-07T07:38:42.577Z,17.98
2023-05-07T07:39:42.603Z,18.04
2023-05-07T07:40:42.562Z,18.04
2023-05-07T07:41:42.599Z,18.09
2023-05-07T07:42:42.570Z,18.13
2023-05-07T07:43:42.532Z,18.17
2023-05-07T07:44:42.606Z,18.25
2023-05-07T07:45:42.538Z,18.29
2023-05-07T07:46:42.524Z,18.35
2023-05-07T07:47:42.524Z,18.41
2023-05-07T07:48:42.467Z,18.46
2023-05-07T07:49:42.478Z,18.53
2023-05-07T07:50:45.942Z,18.57
2023-05-07T07:51:42.433Z,18.60
2023-05-07T07:52:42.386Z,18.62
2023-05-07T07:53:42.485Z,18.59
2023-05-07T07:54:42.453Z,18.59
2023-05-07T07:55:42.397Z,18.64
2023-05-07T07:56:42.380Z,18.69
2023-05-07T07:57:42.333Z,18.74
2023-05-07T07:58:42.330Z,18.76
2023-05-07T07:59:42.328Z,18.79
2023-05-07T08:00:42.343Z,18.82
2023-05-07T08:01:42.340Z,18.82
2023-05-07T08:02:42.376Z,18.82
2023-05-07T08:03:42.448Z,18.82
2023-05-07T08:04:42.299Z,18.84
2023-05-07T08:05:42.267Z,18.89
2023-05-07T08:06:42.268Z,18.96
2023-05-07T08:07:42.215Z,18.97
2023-05-07T08:08:42.237Z,18.99
2023-05-07T08:09:42.293Z,18.97
2023-05-07T08:10:42.162Z,18.99
2023-05-07T08:11:42.190Z,19.02
2023-05-07T08:12:42.159Z,18.99
2023-05-07T08:13:42.158Z,18.96
2023-05-07T08:14:42.110Z,18.94
2023-05-07T08:15:42.153Z,18.91
2023-05-07T08:16:42.109Z,18.91
2023-05-07T08:17:42.144Z,18.93
2023-05-07T08:18:42.070Z,18.94
2023-05-07T08:19:42.071Z,18.94
2023-05-07T08:20:42.041Z,18.96
2023-05-07T08:21:42.023Z,18.97
2023-05-07T08:22:42.015Z,19.01
2023-05-07T08:23:42.046Z,18.97
2023-05-07T08:24:42.007Z,18.97
2023-05-07T08:25:42.011Z,18.99
2023-05-07T08:26:41.999Z,19.01
2023-05-07T08:27:41.960Z,18.96
2023-05-07T08:28:41.926Z,18.96
2023-05-07T08:29:41.926Z,18.97
2023-05-07T08:30:41.965Z,19.02
2023-05-07T08:31:41.947Z,19.02
2023-05-07T08:32:41.920Z,19.05
2023-05-07T08:33:41.878Z,19.02
2023-05-07T08:34:41.888Z,18.99
2023-05-07T08:35:41.850Z,19.02
2023-05-07T08:36:41.924Z,19.05
2023-05-07T08:37:41.853Z,19.07
2023-05-07T08:38:41.801Z,19.09
2023-05-07T08:39:41.832Z,19.10
2023-05-07T08:40:41.845Z,19.09
2023-05-07T08:41:41.765Z,19.07
2023-05-07T08:42:41.797Z,19.10
2023-05-07T08:43:41.751Z,19.12
2023-05-07T08:44:41.706Z,19.13
2023-05-07T08:45:41.705Z,19.15
2023-05-07T08:46:41.769Z,19.17
2023-05-07T08:47:41.803Z,19.20
2023-05-07T08:48:41.688Z,19.23
2023-05-07T08:49:41.714Z,19.21
2023-05-07T08:50:41.658Z,19.23
2023-05-07T08:51:41.683Z,19.23
2023-05-07T08:52:41.644Z,19.24
2023-05-07T08:53:41.663Z,19.24
2023-05-07T08:54:41.628Z,19.24
2023-05-07T08:55:41.614Z,19.24
2023-05-07T08:56:41.579Z,19.24
2023-05-07T08:57:41.573Z,19.27
2023-05-07T08:58:41.575Z,19.31
2023-05-07T08:59:41.578Z,19.39
2023-05-07T09:00:41.494Z,19.43
2023-05-07T09:01:41.571Z,19.43
2023-05-07T09:02:41.492Z,19.45
2023-05-07T09:03:41.541Z,19.46
2023-05-07T09:04:41.455Z,19.49
2023-05-07T09:05:41.445Z,19.52
2023-05-07T09:06:41.453Z,19.60
2023-05-07T09:07:41.462Z,19.62
2023-05-07T09:08:41.395Z,19.68
2023-05-07T09:09:41.458Z,19.76
2023-05-07T09:10:41.388Z,19.80
2023-05-07T09:11:41.363Z,19.86
2023-05-07T09:12:41.413Z,19.92
2023-05-07T09:13:41.337Z,20.01
2023-05-07T09:14:41.345Z,20.10
2023-05-07T09:15:41.377Z,20.16
2023-05-07T09:16:41.337Z,20.19
2023-05-07T09:17:41.389Z,20.19
2023-05-07T09:18:41.343Z,20.19
2023-05-07T09:19:41.263Z,20.22
2023-05-07T09:20:41.292Z,20.26
2023-05-07T09:21:41.234Z,20.26
2023-05-07T09:22:41.228Z,20.33
2023-05-07T09:23:41.219Z,20.37
2023-05-07T09:24:41.219Z,20.37
2023-05-07T09:25:41.182Z,20.37
2023-05-07T09:26:41.186Z,20.38
2023-05-07T09:27:41.185Z,20.41
2023-05-07T09:28:41.303Z,20.41
2023-05-07T09:29:41.140Z,20.44
2023-05-07T09:30:41.134Z,20.46
2023-05-07T09:31:41.151Z,20.42
2023-05-07T09:32:41.220Z,20.41
2023-05-07T09:33:41.085Z,20.38
2023-05-07T09:34:41.077Z,20.35
2023-05-07T09:35:41.059Z,20.33
2023-05-07T09:36:41.074Z,20.31
2023-05-07T09:37:41.024Z,20.30
2023-05-07T09:38:41.046Z,20.26
2023-05-07T09:39:41.034Z,20.22
2023-05-07T09:40:40.989Z,20.17
2023-05-07T09:41:40.996Z,20.17
2023-05-07T09:42:40.965Z,20.20
2023-05-07T09:43:41.005Z,20.20
2023-05-07T09:44:40.948Z,20.23
2023-05-07T09:45:41.007Z,20.20
2023-05-07T09:46:40.924Z,20.20
2023-05-07T09:47:40.974Z,20.17
2023-05-07T09:48:40.908Z,20.19
2023-05-07T09:49:40.878Z,20.19
2023-05-07T09:50:40.880Z,20.20
2023-05-07T09:51:40.839Z,20.23
2023-05-07T09:52:40.838Z,20.23
2023-05-07T09:53:40.860Z,20.27
2023-05-07T09:54:40.825Z,20.26
2023-05-07T09:55:40.813Z,20.25
2023-05-07T09:56:40.805Z,20.26
2023-05-07T09:57:41.030Z,20.30
2023-05-07T09:58:40.783Z,20.30
2023-05-07T09:59:40.788Z,20.31
2023-05-07T10:00:40.790Z,20.34
2023-05-07T10:01:40.815Z,20.34
2023-05-07T10:02:40.773Z,20.40
2023-05-07T10:03:40.792Z,20.48
2023-05-07T10:04:40.695Z,20.54
2023-05-07T10:05:40.701Z,20.60
2023-05-07T10:06:40.684Z,20.64
2023-05-07T10:07:40.753Z,20.75
2023-05-07T10:08:40.646Z,20.76
2023-05-07T10:09:40.604Z,20.88
2023-05-07T10:10:40.727Z,20.94
2023-05-07T10:11:40.653Z,20.96
2023-05-07T10:12:40.660Z,20.93
2023-05-07T10:13:40.571Z,20.88
2023-05-07T10:14:40.612Z,20.91
2023-05-07T10:15:40.558Z,20.96
2023-05-07T10:16:40.528Z,21.05
2023-05-07T10:17:40.682Z,21.09
2023-05-07T10:18:40.502Z,21.15
2023-05-07T10:19:40.485Z,21.19
2023-05-07T10:20:40.475Z,21.26
2023-05-07T10:21:40.485Z,21.30
2023-05-07T10:22:40.419Z,21.34
2023-05-07T10:23:40.447Z,21.36
2023-05-07T10:24:40.430Z,21.37
2023-05-07T10:25:40.482Z,21.36
2023-05-07T10:26:40.409Z,21.37
2023-05-07T10:27:40.478Z,21.36
2023-05-07T10:28:40.377Z,21.36
2023-05-07T10:29:40.408Z,21.36
2023-05-07T10:30:40.455Z,21.36
2023-05-07T10:31:40.357Z,21.37
2023-05-07T10:32:40.433Z,21.40
2023-05-07T10:33:40.297Z,21.42
2023-05-07T10:34:40.290Z,21.43
2023-05-07T10:35:40.293Z,21.46
2023-05-07T10:36:40.262Z,21.52
2023-05-07T10:37:40.269Z,21.56
2023-05-07T10:38:40.260Z,21.63
2023-05-07T10:39:40.233Z,21.71
2023-05-07T10:40:40.239Z,21.79
2023-05-07T10:41:40.193Z,21.83
2023-05-07T10:42:40.185Z,21.83
2023-05-07T10:43:40.184Z,21.86
2023-05-07T10:44:40.162Z,21.89
2023-05-07T10:45:40.142Z,21.91
2023-05-07T10:46:40.499Z,21.96
2023-05-07T10:47:40.220Z,21.93
2023-05-07T10:48:40.100Z,21.90
2023-05-07T10:49:40.117Z,21.86
2023-05-07T10:50:40.194Z,21.85
2023-05-07T10:51:40.187Z,21.86
2023-05-07T10:52:40.133Z,21.90
2023-05-07T10:53:40.055Z,21.90
2023-05-07T10:54:40.010Z,21.82
2023-05-07T10:55:40.014Z,21.77
2023-05-07T10:56:40.002Z,21.74
2023-05-07T10:57:40.028Z,21.74
2023-05-07T10:58:39.982Z,21.73
2023-05-07T10:59:39.988Z,21.74
2023-05-07T11:00:39.961Z,21.75
2023-05-07T11:01:40.030Z,21.79
2023-05-07T11:02:40.009Z,21.79
2023-05-07T11:03:39.905Z,21.82
2023-05-07T11:04:39.989Z,21.85
2023-05-07T11:05:39.921Z,21.85
2023-05-07T11:06:39.886Z,21.89
2023-05-07T11:07:39.868Z,21.90
2023-05-07T11:08:39.821Z,21.90
2023-05-07T11:09:39.826Z,21.85
2023-05-07T11:10:39.796Z,21.83
2023-05-07T11:11:39.838Z,21.79
2023-05-07T11:12:40.161Z,21.82
2023-05-07T11:13:39.825Z,21.81
2023-05-07T11:14:39.770Z,21.82
2023-05-07T11:15:39.789Z,21.82
2023-05-07T11:16:39.859Z,21.81
2023-05-07T11:17:39.772Z,21.82
2023-05-07T11:18:39.766Z,21.85
2023-05-07T11:19:39.728Z,21.82
2023-05-07T11:20:39.703Z,21.81
2023-05-07T11:21:39.685Z,21.77
2023-05-07T11:22:39.682Z,21.75
2023-05-07T11:23:39.737Z,21.71
2023-05-07T11:24:39.639Z,21.70
2023-05-07T11:25:39.679Z,21.67
2023-05-07T11:26:39.597Z,21.66
2023-05-07T11:27:39.569Z,21.61
2023-05-07T11:28:39.625Z,21.61
2023-05-07T11:29:39.564Z,21.61
2023-05-07T11:30:39.564Z,21.63
2023-05-07T11:31:39.666Z,21.67
2023-05-07T11:32:39.581Z,21.68
2023-05-07T11:33:39.725Z,21.68
2023-05-07T11:34:39.496Z,21.64
2023-05-07T11:35:39.544Z,21.64
2023-05-07T11:36:39.497Z,21.66
2023-05-07T11:37:39.445Z,21.68
2023-05-07T11:38:39.485Z,21.68
2023-05-07T11:39:39.465Z,21.73
2023-05-07T11:40:39.399Z,21.79
2023-05-07T11:41:39.437Z,21.86
2023-05-07T11:42:39.417Z,21.91
2023-05-07T11:43:39.391Z,21.99
2023-05-07T11:44:39.387Z,22.04
2023-05-07T11:45:39.397Z,22.09
2023-05-07T11:46:39.366Z,22.15
2023-05-07T11:47:39.397Z,22.20
2023-05-07T11:48:39.354Z,22.26
2023-05-07T11:49:39.313Z,22.27
2023-05-07T11:50:39.312Z,22.29
2023-05-07T11:51:39.283Z,22.31
2023-05-07T11:52:39.279Z,22.35
2023-05-07T11:53:39.298Z,22.38
2023-05-07T11:54:39.304Z,22.38
2023-05-07T11:55:39.207Z,22.39
2023-05-07T11:56:39.230Z,22.39
2023-05-07T11:57:39.230Z,22.35
2023-05-07T11:58:39.212Z,22.38
2023-05-07T11:59:39.182Z,22.41
2023-05-07T12:00:39.213Z,22.46
2023-05-07T12:01:39.142Z,22.54
2023-05-07T12:02:39.229Z,22.63
2023-05-07T12:03:39.277Z,22.66
2023-05-07T12:04:39.200Z,22.70
2023-05-07T12:05:39.096Z,22.69
2023-05-07T12:06:39.106Z,22.74
2023-05-07T12:07:39.071Z,22.75
2023-05-07T12:08:39.045Z,22.76
2023-05-07T12:09:39.046Z,22.78
2023-05-07T12:10:39.068Z,22.81
2023-05-07T12:11:39.022Z,22.85
2023-05-07T12:12:39.080Z,22.85
2023-05-07T12:13:39.006Z,22.88
2023-05-07T12:14:38.965Z,22.86
2023-05-07T12:15:38.953Z,22.85
2023-05-07T12:16:38.988Z,22.84
2023-05-07T12:17:38.965Z,22.81
2023-05-07T12:18:38.930Z,22.79
2023-05-07T12:19:39.671Z,22.74
2023-05-07T12:20:38.939Z,22.70
2023-05-07T12:21:38.857Z,22.70
2023-05-07T12:22:38.852Z,22.67
2023-05-07T12:23:38.872Z,22.63
2023-05-07T12:24:38.850Z,22.57
2023-05-07T12:25:38.855Z,22.52
2023-05-07T12:26:38.851Z,22.48
2023-05-07T12:27:38.817Z,22.42
2023-05-07T12:28:38.811Z,22.38
2023-05-07T12:29:38.786Z,22.33
2023-05-07T12:30:38.756Z,22.30
2023-05-07T12:31:38.863Z,22.27
2023-05-07T12:32:38.836Z,22.23
2023-05-07T12:33:38.757Z,22.20
2023-05-07T12:34:38.775Z,22.15
2023-05-07T12:35:38.708Z,22.15
2023-05-07T12:36:38.680Z,22.11
2023-05-07T12:37:38.702Z,22.08
2023-05-07T12:38:38.678Z,22.08
2023-05-07T12:39:38.653Z,22.02
2023-05-07T12:40:38.628Z,21.99
2023-05-07T12:41:38.635Z,21.93
2023-05-07T12:42:38.673Z,21.91
2023-05-07T12:43:38.607Z,21.86
2023-05-07T12:44:38.615Z,21.83
2023-05-07T12:45:38.602Z,21.85
2023-05-07T12:46:38.601Z,21.82
2023-05-07T12:47:38.642Z,21.79
2023-05-07T12:48:38.651Z,21.77
2023-05-07T12:49:38.521Z,21.74
2023-05-07T12:50:38.525Z,21.74
2023-05-07T12:51:38.470Z,21.74
2023-05-07T12:52:38.518Z,21.74